Time;durP1;ratioP1;P1;durP2;ratioP2;P2;SDS_P1;SDS_P2;PMS_P1;PMS_P2;Temp;Humidity;BMP_temperature;BMP_pressure;BME280_temperature;BME280_humidity;BME280_pressure;Samples;Min_cycle;Max_cycle;Signal;HPM_P1;HPM_P2
2022/03/17 00:27:44;;;;;;;29.47;20.87;;;5.00;1.00;196.50;224877.00;;;;7345078;19;20191;-83
2022/03/17 00:30:18;;;;;;;32.10;21.90;;;5.10;1.00;196.50;224877.00;;;;7422268;19;20191;-82
2022/03/17 00:32:46;;;;;;;26.87;19.10;;;5.10;99.90;196.50;224877.00;;;;7420139;19;20145;-82
2022/03/17 00:38:14;;;;;;;33.63;20.53;;;5.10;99.90;196.50;224877.00;;;;7420714;19;20121;-83
2022/03/17 00:40:45;;;;;;;38.03;19.90;;;5.20;99.90;196.50;224877.00;;;;7425845;19;20144;-83
2022/03/17 00:43:22;;;;;;;28.17;19.47;;;5.30;99.90;196.50;224877.00;;;;7423830;19;20125;-82
2022/03/17 00:45:50;;;;;;;30.47;19.60;;;5.20;99.90;196.50;224877.00;;;;7425047;19;20156;-83
2022/03/17 00:48:23;;;;;;;31.03;20.43;;;5.20;99.90;196.50;224877.00;;;;7424141;19;20132;-84
2022/03/17 00:51:06;;;;;;;30.17;21.30;;;5.20;99.90;196.50;224877.00;;;;7424576;19;20120;-84
2022/03/17 00:53:37;;;;;;;31.73;20.70;;;5.10;99.90;196.50;224877.00;;;;7425253;19;20129;-83
2022/03/17 00:56:17;;;;;;;26.50;20.53;;;5.20;99.90;196.50;224877.00;;;;7427609;19;20180;-82
2022/03/17 00:58:49;;;;;;;27.37;19.70;;;5.20;99.90;196.50;224877.00;;;;7428778;19;20125;-83
2022/03/17 01:01:24;;;;;;;26.60;18.97;;;5.30;99.90;196.50;224877.00;;;;7428257;19;20124;-83
2022/03/17 01:09:09;;;;;;;34.77;20.57;;;5.30;99.90;196.50;224877.00;;;;7416214;19;20131;-84
2022/03/17 01:11:39;;;;;;;35.27;21.03;;;5.20;99.90;196.50;224877.00;;;;7411206;19;20605;-83
2022/03/17 01:14:13;;;;;;;28.77;19.97;;;5.30;99.90;196.50;224877.00;;;;7415140;19;20183;-82
2022/03/17 01:16:44;;;;;;;31.20;20.40;;;5.30;99.90;196.50;224877.00;;;;7418068;19;20125;-81
2022/03/17 01:19:13;;;;;;;28.17;19.80;;;5.40;99.90;196.50;224877.00;;;;7420699;19;20172;-82
2022/03/17 01:21:50;;;;;;;31.70;20.83;;;5.40;99.90;196.50;224877.00;;;;7415936;19;20140;-82
2022/03/17 01:24:18;;;;;;;27.97;20.33;;;5.50;31.60;196.50;224877.00;;;;7415680;19;20148;-83
2022/03/17 01:26:45;;;;;;;28.10;19.77;;;5.50;23.90;196.50;224877.00;;;;7413464;19;20165;-82
2022/03/17 01:29:22;;;;;;;27.57;20.37;;;5.60;1.00;196.50;224877.00;;;;7413832;19;20157;-82
2022/03/17 01:31:50;;;;;;;33.07;21.00;;;5.50;1.00;196.50;224877.00;;;;7412543;19;20142;-83
2022/03/17 01:34:20;;;;;;;30.90;21.80;;;5.60;1.00;196.50;224877.00;;;;7418362;19;20153;-83
2022/03/17 01:36:54;;;;;;;32.43;21.80;;;5.60;1.00;196.50;224877.00;;;;7417586;19;20141;-83
2022/03/17 01:39:22;;;;;;;30.77;20.47;;;5.60;1.00;196.50;224877.00;;;;7419480;19;20157;-82
2022/03/17 01:41:49;;;;;;;31.30;20.60;;;5.60;1.00;196.50;224877.00;;;;7418824;19;20147;-83
2022/03/17 01:44:26;;;;;;;34.07;21.07;;;5.60;1.00;196.50;224877.00;;;;7417362;19;20124;-83
2022/03/17 02:01:03;;;;;;;24.97;19.90;;;5.70;1.00;196.50;224877.00;;;;7366273;19;20216;-82
2022/03/17 02:03:47;;;;;;;24.93;20.53;;;5.70;1.00;196.50;224877.00;;;;7424332;19;20164;-83
2022/03/17 02:06:17;;;;;;;25.27;20.30;;;5.80;1.00;196.50;224877.00;;;;7422079;19;20129;-82
2022/03/17 02:08:52;;;;;;;28.97;20.87;;;5.80;1.00;196.50;224877.00;;;;7418855;19;20603;-82
2022/03/17 02:14:25;;;;;;;25.80;20.03;;;5.80;1.00;196.50;224877.00;;;;7423834;19;20157;-82
2022/03/17 02:17:00;;;;;;;29.77;20.93;;;5.80;1.00;196.50;224877.00;;;;7424566;19;20146;-82
2022/03/17 02:19:41;;;;;;;29.60;21.53;;;5.80;99.90;196.50;224877.00;;;;7381838;19;20192;-83
2022/03/17 02:22:14;;;;;;;26.77;19.90;;;5.80;1.40;196.50;224877.00;;;;7424586;19;20125;-83
2022/03/17 02:27:45;;;;;;;29.83;20.03;;;5.70;1.00;196.50;224877.00;;;;7416306;19;20140;-83
2022/03/17 02:30:23;;;;;;;30.03;21.43;;;5.70;1.00;196.50;224877.00;;;;7412828;19;20140;-83
2022/03/17 02:33:16;;;;;;;29.80;22.00;;;5.70;1.00;196.50;224877.00;;;;7413263;19;20129;-83
2022/03/17 02:35:53;;;;;;;36.83;21.13;;;5.70;1.00;196.50;224877.00;;;;7414398;19;20161;-81
2022/03/17 02:38:27;;;;;;;28.40;21.87;;;5.70;1.00;196.50;224877.00;;;;7417199;19;20625;-83
2022/03/17 02:41:01;;;;;;;29.83;21.27;;;5.60;1.00;196.50;224877.00;;;;7420480;19;20153;-83
2022/03/17 02:43:31;;;;;;;28.00;22.30;;;5.70;1.00;196.50;224877.00;;;;7419417;19;20152;-83
2022/03/17 02:46:04;;;;;;;30.77;21.83;;;5.60;1.00;196.50;224877.00;;;;7420917;19;20133;-83
2022/03/17 02:48:41;;;;;;;32.90;22.07;;;5.60;1.00;196.50;224877.00;;;;7426202;19;20133;-84
2022/03/17 02:51:13;;;;;;;33.97;21.87;;;5.60;1.00;196.50;224877.00;;;;7424415;19;20520;-84
2022/03/17 02:53:50;;;;;;;36.57;21.37;;;5.60;1.00;196.50;224877.00;;;;7424530;19;20131;-84
2022/03/17 02:56:20;;;;;;;30.93;21.77;;;5.60;1.00;196.50;224877.00;;;;7428073;19;20129;-83
2022/03/17 02:58:54;;;;;;;26.43;21.30;;;5.60;1.00;196.50;224877.00;;;;7429295;19;20137;-84
2022/03/17 03:08:59;;;;;;;26.57;21.00;;;5.60;1.00;196.50;224877.00;;;;7409411;19;20188;-82
2022/03/17 03:11:34;;;;;;;28.37;21.37;;;5.60;1.00;196.50;224877.00;;;;7427196;19;20129;-82
2022/03/17 03:14:02;;;;;;;31.70;21.47;;;5.60;1.00;196.50;224877.00;;;;7427732;19;20144;-81
2022/03/17 03:16:29;;;;;;;30.23;22.27;;;5.60;1.00;196.50;224877.00;;;;7428050;19;20144;-82
2022/03/17 03:19:06;;;;;;;29.00;19.97;;;5.60;1.00;196.50;224877.00;;;;7426230;19;20144;-82
2022/03/17 03:21:38;;;;;;;28.43;21.37;;;5.70;1.00;196.50;224877.00;;;;7428109;19;20141;-83
2022/03/17 03:24:19;;;;;;;28.17;20.00;;;5.70;1.00;196.50;224877.00;;;;7428242;19;20132;-81
2022/03/17 03:26:46;;;;;;;31.03;20.73;;;5.70;1.00;196.50;224877.00;;;;7425591;19;20180;-83
2022/03/17 03:29:31;;;;;;;25.30;19.67;;;5.70;1.00;196.50;224877.00;;;;7422119;19;20125;-81
2022/03/17 03:32:04;;;;;;;25.83;20.13;;;5.80;1.00;196.50;224877.00;;;;7424839;19;20160;-82
2022/03/17 03:34:39;;;;;;;29.30;19.53;;;5.80;1.00;196.50;224877.00;;;;7427568;19;20130;-82
2022/03/17 03:37:23;;;;;;;30.17;20.00;;;5.80;1.00;196.50;224877.00;;;;7427258;19;20139;-82
2022/03/17 03:39:58;;;;;;;25.03;18.83;;;5.80;1.00;196.50;224877.00;;;;7429028;19;20121;-82
2022/03/17 03:42:26;;;;;;;33.20;20.30;;;5.80;1.00;196.50;224877.00;;;;7422841;19;20159;-82
2022/03/17 03:44:54;;;;;;;30.87;20.33;;;5.90;1.00;196.50;224877.00;;;;7429808;19;20141;-82
2022/03/17 03:47:28;;;;;;;25.97;19.83;;;5.90;1.00;196.50;224877.00;;;;7429101;19;20149;-82
2022/03/17 03:49:56;;;;;;;28.13;19.70;;;5.90;1.00;196.50;224877.00;;;;7432383;19;20125;-84
2022/03/17 03:52:23;;;;;;;25.37;18.83;;;5.90;1.00;196.50;224877.00;;;;7432486;19;20121;-82
2022/03/17 03:57:36;;;;;;;26.93;19.27;;;5.90;1.00;196.50;224877.00;;;;7339326;19;20884;-85
2022/03/17 04:00:32;;;;;;;27.20;18.97;;;5.90;1.00;196.50;224877.00;;;;7426116;19;20144;-83
2022/03/17 04:03:04;;;;;;;32.63;20.00;;;5.90;1.00;196.50;224877.00;;;;7435714;19;20137;-83
2022/03/17 05:26:54;;;;;;;23.40;17.10;;;5.50;99.90;196.50;224877.00;;;;7379756;19;20192;-84
2022/03/17 05:29:36;;;;;;;23.70;17.70;;;5.40;99.90;196.50;224877.00;;;;7427025;19;20121;-83
2022/03/17 05:32:04;;;;;;;27.70;18.77;;;5.40;99.90;196.50;224877.00;;;;7428009;19;20125;-84
2022/03/17 05:34:40;;;;;;;28.73;18.37;;;5.40;99.90;196.50;224877.00;;;;7423115;19;20128;-83
2022/03/17 05:37:08;;;;;;;27.63;18.50;;;5.40;99.90;196.50;224877.00;;;;7408181;19;20173;-85
2022/03/17 05:39:35;;;;;;;24.33;17.77;;;5.40;99.90;196.50;224877.00;;;;7402119;19;20151;-82
2022/03/17 05:42:09;;;;;;;27.03;18.10;;;5.40;99.90;196.50;224877.00;;;;7401104;19;20176;-84
2022/03/17 05:44:36;;;;;;;22.73;16.23;;;5.40;1.00;196.50;224877.00;;;;7403527;19;20133;-83
2022/03/17 05:47:04;;;;;;;32.00;16.33;;;5.40;1.00;196.50;224877.00;;;;7399766;19;20141;-84
2022/03/17 05:49:43;;;;;;;21.23;15.77;;;5.40;1.00;196.50;224877.00;;;;7395012;19;20140;-83
2022/03/17 05:52:24;;;;;;;24.10;16.83;;;5.40;1.00;196.50;224877.00;;;;7391714;19;20133;-83
2022/03/17 05:54:58;;;;;;;26.87;15.30;;;5.50;1.00;196.50;224877.00;;;;7393754;19;20161;-82
2022/03/17 05:57:29;;;;;;;23.70;15.93;;;5.50;1.00;196.50;224877.00;;;;7390582;19;20141;-83
2022/03/17 05:59:56;;;;;;;23.30;16.47;;;5.50;1.00;196.50;224877.00;;;;7396847;19;20132;-83
2022/03/17 06:02:36;;;;;;;19.97;15.40;;;5.60;1.00;196.50;224877.00;;;;7397335;19;20137;-82
2022/03/17 06:05:09;;;;;;;25.83;16.63;;;5.60;1.00;196.50;224877.00;;;;7397163;19;20133;-83
2022/03/17 06:07:47;;;;;;;21.43;15.57;;;5.60;1.00;196.50;224877.00;;;;7396482;19;20160;-82
2022/03/17 06:10:21;;;;;;;31.13;18.37;;;5.60;1.00;196.50;224877.00;;;;7396731;19;20161;-81
2022/03/17 06:12:58;;;;;;;27.27;17.93;;;5.60;1.00;196.50;224877.00;;;;7395850;19;20133;-84
2022/03/17 06:15:33;;;;;;;24.63;14.90;;;5.60;1.00;196.50;224877.00;;;;7397945;19;20141;-83
2022/03/17 06:18:07;;;;;;;23.00;15.90;;;5.60;1.00;196.50;224877.00;;;;7399101;19;20125;-83
2022/03/17 06:20:37;;;;;;;23.87;15.30;;;5.70;1.00;196.50;224877.00;;;;7395375;19;20604;-83
2022/03/17 06:23:07;;;;;;;22.93;15.13;;;5.80;1.00;196.50;224877.00;;;;7396771;19;20204;-83
2022/03/17 06:25:59;;;;;;;23.73;14.67;;;5.80;1.00;196.50;224877.00;;;;7396323;19;20160;-84
2022/03/17 06:28:27;;;;;;;22.23;13.90;;;5.90;1.00;196.50;224877.00;;;;7397389;19;20600;-84
2022/03/17 06:31:04;;;;;;;25.20;14.17;;;5.90;1.00;196.50;224877.00;;;;7397505;19;20140;-83
2022/03/17 06:33:34;;;;;;;20.20;14.17;;;6.00;1.00;196.50;224877.00;;;;7395997;19;20144;-84
2022/03/17 06:36:11;;;;;;;18.30;13.53;;;6.00;1.00;196.50;224877.00;;;;7396607;19;20161;-84
2022/03/17 06:38:38;;;;;;;27.33;14.13;;;6.10;1.00;196.50;224877.00;;;;7395967;19;20133;-84
2022/03/17 06:41:05;;;;;;;22.60;13.93;;;6.10;1.00;196.50;224877.00;;;;7397566;19;20137;-83
2022/03/17 06:43:39;;;;;;;20.63;12.97;;;6.10;1.00;196.50;224877.00;;;;7396788;19;20140;-83
2022/03/17 06:46:08;;;;;;;18.67;13.03;;;6.10;1.00;196.50;224877.00;;;;7395113;19;20137;-83
2022/03/17 06:48:35;;;;;;;21.93;12.97;;;6.10;99.90;196.50;224877.00;;;;7395870;19;20145;-83
2022/03/17 06:51:12;;;;;;;18.57;12.53;;;6.10;99.90;196.50;224877.00;;;;7394559;19;20141;-83
2022/03/17 06:53:40;;;;;;;21.07;12.17;;;6.10;1.00;196.50;224877.00;;;;7399102;19;20141;-84
2022/03/17 06:56:09;;;;;;;18.23;11.63;;;6.20;99.90;196.50;224877.00;;;;7395474;19;20600;-83
2022/03/17 06:58:43;;;;;;;21.33;12.10;;;6.20;99.90;196.50;224877.00;;;;7393688;19;20125;-83
2022/03/17 07:01:14;;;;;;;22.73;14.33;;;6.20;99.90;196.50;224877.00;;;;7395326;19;20154;-83
2022/03/17 07:03:42;;;;;;;18.03;13.03;;;6.30;99.90;196.50;224877.00;;;;7395980;19;20208;-83
2022/03/17 07:06:15;;;;;;;23.67;14.07;;;6.40;1.00;196.50;224877.00;;;;7396292;19;20616;-84
2022/03/17 07:08:44;;;;;;;20.50;14.60;;;6.50;1.00;196.50;224877.00;;;;7395370;19;20238;-83
2022/03/17 07:11:12;;;;;;;18.20;13.13;;;6.50;1.00;196.50;224877.00;;;;7394957;19;20489;-83
2022/03/17 07:13:49;;;;;;;19.53;13.33;;;6.60;1.00;196.50;224877.00;;;;7401627;19;20483;-81
2022/03/17 07:16:19;;;;;;;22.30;13.57;;;6.70;1.00;196.50;224877.00;;;;7395688;19;20178;-82
2022/03/17 07:18:56;;;;;;;15.37;10.10;;;6.80;1.00;196.50;224877.00;;;;7391817;19;20544;-82
2022/03/17 07:21:25;;;;;;;16.67;8.73;;;6.80;1.00;196.50;224877.00;;;;7393952;19;20208;-82
2022/03/17 07:23:55;;;;;;;16.93;9.73;;;6.80;1.00;196.50;224877.00;;;;7395563;19;20137;-81
2022/03/17 07:26:45;;;;;;;16.63;8.53;;;6.90;1.00;196.50;224877.00;;;;7398519;19;20188;-82
2022/03/17 07:29:12;;;;;;;17.20;10.00;;;6.90;1.00;196.50;224877.00;;;;7402145;19;20159;-83
2022/03/17 07:31:46;;;;;;;17.93;10.43;;;7.00;1.00;196.50;224877.00;;;;7402676;19;20133;-82
2022/03/17 07:34:13;;;;;;;17.53;9.13;;;7.00;1.00;196.50;224877.00;;;;7404357;19;20125;-82
2022/03/17 07:36:41;;;;;;;16.77;9.80;;;7.10;1.00;196.50;224877.00;;;;7402905;19;20129;-82
2022/03/17 07:39:15;;;;;;;15.63;9.10;;;7.20;1.00;196.50;224877.00;;;;7402802;19;20149;-82
2022/03/17 07:41:44;;;;;;;18.27;11.13;;;7.30;1.00;196.50;224877.00;;;;7404121;19;20166;-84
2022/03/17 07:44:14;;;;;;;16.60;10.67;;;7.30;1.00;196.50;224877.00;;;;7403713;19;20141;-84
2022/03/17 07:46:49;;;;;;;21.10;11.70;;;7.40;1.00;196.50;224877.00;;;;7403121;19;20142;-84
2022/03/17 07:49:17;;;;;;;18.03;10.20;;;7.50;99.90;196.50;224877.00;;;;7405497;19;20162;-83
2022/03/17 07:51:47;;;;;;;23.43;10.27;;;7.60;99.90;196.50;224877.00;;;;7402930;19;20147;-83
2022/03/17 07:54:24;;;;;;;20.57;10.93;;;7.60;99.90;196.50;224877.00;;;;7400673;19;20147;-82
2022/03/17 07:56:51;;;;;;;18.93;11.53;;;7.60;99.90;196.50;224877.00;;;;7400123;19;20137;-81
2022/03/17 07:59:26;;;;;;;20.70;10.43;;;7.70;99.90;196.50;224877.00;;;;7402389;19;20165;-85
2022/03/17 08:02:03;;;;;;;19.20;10.33;;;7.70;99.90;196.50;224877.00;;;;7404913;19;20471;-81
2022/03/17 08:04:35;;;;;;;18.67;11.67;;;7.80;99.90;196.50;224877.00;;;;7399615;19;20129;-83
2022/03/17 08:07:09;;;;;;;18.60;11.40;;;7.90;99.90;196.50;224877.00;;;;7402636;19;20147;-81
2022/03/17 08:09:45;;;;;;;18.10;11.47;;;7.90;99.90;196.50;224877.00;;;;7402873;19;20149;-79
2022/03/17 08:12:20;;;;;;;23.00;12.60;;;8.00;1.70;196.50;224877.00;;;;7401812;19;20484;-80
2022/03/17 08:14:50;;;;;;;14.83;9.70;;;8.10;12.00;196.50;224877.00;;;;7402320;19;20210;-83
2022/03/17 08:17:20;;;;;;;26.07;12.50;;;8.10;97.40;196.50;224877.00;;;;7403436;19;20137;-81
2022/03/17 08:19:55;;;;;;;17.53;11.10;;;8.10;99.90;196.50;224877.00;;;;7403877;19;20140;-81
2022/03/17 08:22:24;;;;;;;17.13;12.20;;;8.10;44.30;196.50;224877.00;;;;7401557;19;20139;-80
2022/03/17 08:24:59;;;;;;;25.70;16.90;;;8.20;35.30;196.50;224877.00;;;;7401918;19;20121;-79
2022/03/17 08:27:50;;;;;;;23.90;15.63;;;8.30;1.00;196.50;224877.00;;;;7401253;19;20149;-82
2022/03/17 08:30:29;;;;;;;24.87;14.60;;;8.40;20.50;196.50;224877.00;;;;7398481;19;20137;-82
2022/03/17 08:33:04;;;;;;;24.10;17.47;;;8.50;1.00;196.50;224877.00;;;;7396989;19;20479;-82
2022/03/17 08:35:31;;;;;;;23.17;16.43;;;8.60;1.00;196.50;224877.00;;;;7396224;19;20165;-81
2022/03/17 08:38:00;;;;;;;19.75;14.00;;;8.70;1.00;196.50;224877.00;;;;7393522;19;20141;-81
2022/03/17 08:40:38;;;;;;;24.33;15.00;;;8.90;1.00;196.50;224877.00;;;;7397649;19;20212;-82
2022/03/17 08:43:10;;;;;;;21.92;14.65;;;9.00;1.00;196.50;224877.00;;;;7397502;19;20140;-81
2022/03/17 08:51:53;;;;;;;22.58;13.70;;;9.10;99.90;196.50;224877.00;;;;7400933;19;20129;-82
2022/03/17 08:54:27;;;;;;;23.58;13.80;;;9.00;99.90;196.50;224877.00;;;;7398605;19;20524;-82
2022/03/17 08:57:03;;;;;;;18.48;13.00;;;9.10;99.90;196.50;224877.00;;;;7396904;19;20183;-79
2022/03/17 08:59:35;;;;;;;18.90;13.15;;;9.10;1.00;196.50;224877.00;;;;7396526;19;20555;-81
2022/03/17 09:02:14;;;;;;;18.08;12.48;;;9.20;99.90;196.50;224877.00;;;;7399090;19;20454;-80
2022/03/17 09:04:42;;;;;;;16.55;13.30;;;9.20;99.90;196.50;224877.00;;;;7396446;19;20148;-80
2022/03/17 09:07:16;;;;;;;21.15;14.38;;;9.20;99.90;196.50;224877.00;;;;7395540;19;20144;-78
2022/03/17 09:09:45;;;;;;;26.42;15.30;;;9.20;99.90;196.50;224877.00;;;;7402683;19;20220;-80
2022/03/17 09:12:12;;;;;;;20.58;15.20;;;9.30;1.00;196.50;224877.00;;;;7398167;19;20489;-79
2022/03/17 09:14:47;;;;;;;19.63;13.50;;;9.40;99.90;196.50;224877.00;;;;7396854;19;20129;-78
2022/03/17 09:17:15;;;;;;;22.10;14.32;;;9.40;99.90;196.50;224877.00;;;;7396251;19;20158;-78
2022/03/17 09:19:42;;;;;;;20.50;14.13;;;9.50;99.90;196.50;224877.00;;;;7395452;19;20121;-78
2022/03/17 09:22:16;;;;;;;17.58;13.77;;;9.70;99.90;196.50;224877.00;;;;7397523;19;20172;-81
2022/03/17 09:24:46;;;;;;;19.30;13.48;;;9.80;99.90;196.50;224877.00;;;;7397426;19;20151;-79
2022/03/17 09:27:13;;;;;;;18.92;13.32;;;10.00;1.00;196.50;224877.00;;;;7397728;19;20194;-81
2022/03/17 09:29:47;;;;;;;20.60;13.45;;;10.10;1.00;196.50;224877.00;;;;7399760;19;20595;-79
2022/03/17 09:32:20;;;;;;;26.42;16.08;;;10.30;99.90;196.50;224877.00;;;;7399491;19;20129;-81
2022/03/17 09:34:47;;;;;;;35.25;18.60;;;10.40;1.00;196.50;224877.00;;;;7398323;19;20137;-78
2022/03/17 09:37:21;;;;;;;27.40;17.50;;;10.50;1.00;196.50;224877.00;;;;7396721;19;20137;-78
2022/03/17 09:39:49;;;;;;;28.48;17.30;;;10.60;5.60;196.50;224877.00;;;;7398272;19;20577;-77
2022/03/17 09:42:21;;;;;;;29.00;17.70;;;10.70;1.00;196.50;224877.00;;;;7400555;19;20513;-79
2022/03/17 09:44:55;;;;;;;25.25;16.85;;;10.80;99.90;196.50;224877.00;;;;7398447;19;20457;-82
2022/03/17 09:47:27;;;;;;;26.63;17.77;;;10.70;99.90;196.50;224877.00;;;;7396450;19;20580;-82
2022/03/17 09:49:59;;;;;;;25.65;19.42;;;10.80;99.90;196.50;224877.00;;;;7398695;19;20137;-80
2022/03/17 09:52:37;;;;;;;17.25;13.57;;;10.60;1.00;196.50;224877.00;;;;7400265;19;20236;-81
2022/03/17 09:55:09;;;;;;;22.58;14.48;;;10.70;1.00;196.50;224877.00;;;;7396864;19;20161;-81
2022/03/17 09:57:43;;;;;;;17.80;14.25;;;10.60;1.00;196.50;224877.00;;;;7395897;19;20132;-81
2022/03/17 10:00:12;;;;;;;22.95;15.52;;;10.60;1.00;196.50;224877.00;;;;7396505;19;20133;-81
2022/03/17 10:02:40;;;;;;;24.92;17.15;;;10.70;1.00;196.50;224877.00;;;;7397408;19;20498;-78
2022/03/17 10:05:15;;;;;;;27.83;18.25;;;10.70;1.00;196.50;224877.00;;;;7395932;19;20149;-81
2022/03/17 10:07:47;;;;;;;24.17;17.63;;;10.50;1.00;196.50;224877.00;;;;7395473;19;20140;-82
2022/03/17 10:10:15;;;;;;;21.75;16.58;;;10.60;1.00;196.50;224877.00;;;;7394784;19;20141;-80
2022/03/17 10:13:16;;;;;;;21.95;16.98;;;10.50;1.00;196.50;224877.00;;;;7396629;19;20623;-81
2022/03/17 10:16:12;;;;;;;26.33;17.92;;;10.60;1.00;196.50;224877.00;;;;7395892;19;20472;-79
2022/03/17 10:19:00;;;;;;;27.50;18.35;;;10.50;1.00;196.50;224877.00;;;;7394754;19;20137;-79
2022/03/17 10:21:29;;;;;;;31.23;19.40;;;10.30;1.00;196.50;224877.00;;;;7395247;19;20488;-80
2022/03/17 10:24:09;;;;;;;27.35;19.30;;;10.30;1.00;196.50;224877.00;;;;7397248;19;20485;-77
2022/03/17 10:26:51;;;;;;;31.33;21.35;;;10.20;1.00;196.50;224877.00;;;;7392744;19;20672;-80
2022/03/17 10:29:33;;;;;;;33.03;21.90;;;10.10;1.00;196.50;224877.00;;;;7394357;19;20133;-80
2022/03/17 10:32:07;;;;;;;31.95;21.85;;;10.10;1.00;196.50;224877.00;;;;7395461;19;20141;-78
2022/03/17 10:34:55;;;;;;;31.95;22.25;;;10.10;1.00;196.50;224877.00;;;;7395704;19;20145;-79
2022/03/17 10:37:25;;;;;;;30.83;21.95;;;10.00;1.00;196.50;224877.00;;;;7395179;19;20160;-82
2022/03/17 10:40:10;;;;;;;34.75;23.67;;;10.00;1.00;196.50;224877.00;;;;7395834;19;20153;-82
2022/03/17 10:42:38;;;;;;;34.15;23.13;;;10.00;1.00;196.50;224877.00;;;;7398403;19;20135;-82
2022/03/17 10:45:15;;;;;;;36.85;23.45;;;9.80;1.00;196.50;224877.00;;;;7394944;19;20138;-82
2022/03/17 10:47:43;;;;;;;34.63;23.20;;;9.70;1.00;196.50;224877.00;;;;7397383;19;20876;-82
2022/03/17 10:50:18;;;;;;;35.45;24.05;;;9.60;1.00;196.50;224877.00;;;;7397870;19;20149;-81
2022/03/17 10:53:00;;;;;;;33.85;22.10;;;9.60;1.00;196.50;224877.00;;;;7401052;19;20129;-82
2022/03/17 10:55:34;;;;;;;33.45;22.83;;;9.60;3.50;196.50;224877.00;;;;7396993;19;20139;-82
2022/03/17 10:58:13;;;;;;;33.97;22.67;;;9.70;1.00;196.50;224877.00;;;;7394853;19;20141;-80
2022/03/17 11:00:57;;;;;;;33.53;23.02;;;9.60;1.00;196.50;224877.00;;;;7399638;19;20140;-79
2022/03/17 11:03:32;;;;;;;35.72;23.52;;;9.60;49.20;196.50;224877.00;;;;7402827;19;20127;-80
2022/03/17 11:06:00;;;;;;;33.42;22.95;;;9.60;49.20;196.50;224877.00;;;;7404372;19;20163;-82
2022/03/17 11:08:30;;;;;;;34.47;24.65;;;9.60;99.90;196.50;224877.00;;;;7411929;19;20573;-83
2022/03/17 11:11:11;;;;;;;44.65;26.63;;;9.60;99.90;196.50;224877.00;;;;7408643;19;20220;-83
2022/03/17 11:13:42;;;;;;;37.43;25.63;;;9.60;99.90;196.50;224877.00;;;;7409901;19;20137;-82
2022/03/17 11:16:21;;;;;;;37.35;26.02;;;9.60;49.20;196.50;224877.00;;;;7403036;19;20133;-82
2022/03/17 11:18:50;;;;;;;43.08;27.60;;;9.50;12.40;196.50;224877.00;;;;7399191;19;20161;-79
2022/03/17 11:21:31;;;;;;;40.67;27.67;;;9.40;94.60;196.50;224877.00;;;;7395886;19;20161;-79
2022/03/17 11:24:05;;;;;;;44.00;28.25;;;9.30;99.90;196.50;224877.00;;;;7398903;19;20133;-82
2022/03/17 11:26:50;;;;;;;45.80;29.05;;;9.20;99.90;196.50;224877.00;;;;7395854;19;20184;-82
2022/03/17 11:29:24;;;;;;;42.00;28.65;;;9.20;99.90;196.50;224877.00;;;;7397575;19;20165;-81
2022/03/17 11:32:05;;;;;;;42.75;29.08;;;9.30;99.90;196.50;224877.00;;;;7397375;19;20137;-81
2022/03/17 11:34:38;;;;;;;43.87;29.23;;;9.30;99.90;196.50;224877.00;;;;7397347;19;20145;-81
2022/03/17 11:37:28;;;;;;;45.05;30.90;;;9.10;99.90;196.50;224877.00;;;;7395765;19;20505;-81
2022/03/17 11:40:06;;;;;;;45.65;30.70;;;9.00;99.90;196.50;224877.00;;;;7394664;19;20200;-80
2022/03/17 11:42:46;;;;;;;53.40;34.42;;;8.90;99.90;196.50;224877.00;;;;7398581;19;20145;-81
2022/03/17 11:45:14;;;;;;;49.72;33.55;;;8.80;1.00;196.50;224877.00;;;;7397632;19;20133;-80
2022/03/17 11:47:59;;;;;;;49.53;33.00;;;8.70;1.00;196.50;224877.00;;;;7395256;19;20136;-82
2022/03/17 11:50:40;;;;;;;50.87;34.77;;;8.60;1.00;196.50;224877.00;;;;7395461;19;20137;-80
2022/03/17 11:53:14;;;;;;;53.22;33.65;;;8.60;1.00;196.50;224877.00;;;;7396869;19;20125;-81
2022/03/17 11:55:42;;;;;;;55.73;34.07;;;8.70;1.00;196.50;224877.00;;;;7394349;19;20215;-81
2022/03/17 11:58:39;;;;;;;48.95;35.15;;;8.60;1.00;196.50;224877.00;;;;7393206;19;20161;-81
2022/03/17 12:01:28;;;;;;;53.50;33.10;;;8.60;1.00;196.50;224877.00;;;;7393741;19;20165;-82
2022/03/17 12:04:07;;;;;;;50.57;33.70;;;8.70;1.00;196.50;224877.00;;;;7394471;19;20137;-81
2022/03/17 12:07:06;;;;;;;51.37;36.13;;;8.80;1.00;196.50;224877.00;;;;7393348;19;20133;-80
2022/03/17 12:09:35;;;;;;;55.05;37.00;;;8.80;1.00;196.50;224877.00;;;;7394236;19;20139;-80
2022/03/17 12:12:25;;;;;;;58.40;39.40;;;8.80;1.00;196.50;224877.00;;;;7391990;19;20176;-81
2022/03/17 12:14:56;;;;;;;62.70;38.33;;;8.80;1.00;196.50;224877.00;;;;7393695;19;20141;-81
2022/03/17 12:17:30;;;;;;;60.17;40.70;;;8.70;1.00;196.50;224877.00;;;;7394920;19;20152;-80
2022/03/17 12:20:07;;;;;;;58.20;38.83;;;;;196.50;224877.00;;;;7393288;19;20767;-81
2022/03/17 12:22:44;;;;;;;49.63;35.67;;;;;196.50;224877.00;;;;7395401;19;20196;-81
2022/03/17 12:25:24;;;;;;;47.23;35.53;;;8.80;99.90;196.50;224877.00;;;;7394428;19;20182;-81
2022/03/17 12:28:05;;;;;;;48.70;33.77;;;9.00;1.00;196.50;224877.00;;;;7397206;19;20184;-78
2022/03/17 12:30:40;;;;;;;45.28;32.78;;;9.10;99.90;196.50;224877.00;;;;7394861;19;20199;-80
2022/03/17 12:33:16;;;;;;;44.45;32.25;;;9.30;99.90;196.50;224877.00;;;;7394589;19;20129;-80
2022/03/17 12:35:45;;;;;;;49.90;31.85;;;9.30;29.10;196.50;224877.00;;;;7395314;19;20912;-80
2022/03/17 12:38:13;;;;;;;44.03;31.65;;;9.40;1.00;196.50;224877.00;;;;7395408;19;20457;-76
2022/03/17 12:40:50;;;;;;;41.42;31.65;;;9.30;1.00;196.50;224877.00;;;;7395476;19;20140;-79
2022/03/17 12:43:22;;;;;;;43.22;31.60;;;9.40;1.00;196.50;224877.00;;;;7394492;19;20133;-80
2022/03/17 12:45:56;;;;;;;41.60;29.33;;;9.50;1.00;196.50;224877.00;;;;7393748;19;20145;-79
2022/03/17 12:48:25;;;;;;;42.78;30.48;;;9.70;99.90;196.50;224877.00;;;;7395736;19;20129;-79
2022/03/17 12:51:05;;;;;;;38.58;29.05;;;9.80;99.90;196.50;224877.00;;;;7395342;19;20538;-80
2022/03/17 12:53:41;;;;;;;38.83;29.00;;;9.90;99.90;196.50;224877.00;;;;7394620;19;20159;-80
2022/03/17 12:56:08;;;;;;;38.47;30.02;;;9.90;99.90;196.50;224877.00;;;;7396590;19;20553;-78
2022/03/17 12:58:40;;;;;;;44.17;30.65;;;9.60;99.90;196.50;224877.00;;;;7394994;19;20140;-79
2022/03/17 13:01:14;;;;;;;49.70;31.95;;;9.60;99.90;196.50;224877.00;;;;7397583;19;20587;-80
2022/03/17 13:03:43;;;;;;;38.05;29.02;;;9.50;99.90;196.50;224877.00;;;;7397447;19;20133;-78
2022/03/17 13:09:11;;;;;;;40.15;32.25;;;9.20;99.90;196.50;224877.00;;;;7396747;19;20628;-78
2022/03/17 13:14:20;;;;;;;45.45;33.25;;;9.10;1.00;196.50;224877.00;;;;7396067;19;20646;-78
2022/03/17 13:14:51;;;;;;;41.15;33.80;;;9.00;1.00;196.50;224877.00;;;;7397099;19;20573;-76
2022/03/17 13:18:01;;;;;;;44.35;35.13;;;9.00;1.00;196.50;224877.00;;;;7396379;19;20489;-80
2022/03/17 13:20:35;;;;;;;46.83;34.45;;;8.80;1.00;196.50;224877.00;;;;7394228;19;20137;-80
2022/03/17 13:23:12;;;;;;;42.03;34.53;;;8.70;1.00;196.50;224877.00;;;;7396490;19;20592;-81
2022/03/17 13:25:46;;;;;;;44.55;36.20;;;8.60;1.00;196.50;224877.00;;;;7397651;19;20144;-78
2022/03/17 13:28:21;;;;;;;46.70;38.13;;;8.40;1.00;196.50;224877.00;;;;7396789;19;20192;-77
2022/03/17 13:30:56;;;;;;;52.97;39.87;;;8.40;1.00;196.50;224877.00;;;;7400705;19;20200;-79
2022/03/17 13:33:35;;;;;;;52.33;40.70;;;;;196.50;224877.00;;;;7401810;19;20689;-80
2022/03/17 13:36:10;;;;;;;51.70;40.90;;;;;196.50;224877.00;;;;7400085;19;20196;-79
2022/03/17 13:38:37;;;;;;;58.07;42.70;;;8.00;1.00;196.50;224877.00;;;;7396630;19;20592;-77
2022/03/17 13:41:05;;;;;;;54.30;43.23;;;7.90;1.00;196.50;224877.00;;;;7399420;19;20141;-77
2022/03/17 13:43:40;;;;;;;52.87;40.80;;;7.80;1.00;196.50;224877.00;;;;7400155;19;20191;-80